St Petersburg Clearwater International Airport
KPIE : now visible

Airfield :











YOU CAN JOIN US ON...

 
LOGIN :

Register | Disclaimer

   EN    FR    IT 

 









Legend :    VFR   Marginal VFR   IFR   Intensive IFR   Very Intensive IFR
Visi :
Ceiling :
>= 8 km
>= 3000ft
5 to 8 km
1000 to 3000 ft
1500m to 5 km
500 to 1000 ft
800 to 1500m
200 to 500 ft
< 800m
< 200 ft
Symbols :   Thunderstorms  Fog  Heavy snow  Heavy precipitations  Wind > 20 kt






- Airport Elevation : 11 ft
- IATA code : PIE


KPIE - St Petersburg Clearwater International

CURRENT METAR :
  • 040253Z 26005KT 10SM CLR 29/25 A2995 RMK AO2 SLP142 T02890250 53011

EXPIRED METARs :
  • 040153Z 25004KT 10SM CLR 29/25 A2994 RMK AO2 SLP137 T02890250
  • 040053Z 28006KT 10SM CLR 29/25 A2993 RMK AO2 SLP133 T02940250

TAF KPIE
Valid from the 04 at 00:00 until the 05 at 00:00 UTC


032326Z 0400/0424 28007KT P6SM SCT035 SCT250
FM040200 27005KT P6SM FEW030 SCT250
FM041400 30005KT P6SM VCSH SCT025 SCT250
FM041600 29007KT P6SM VCTS SCT025CB SCT100 BKN250
FM042100 28008KT P6SM FEW020 BKN250
KZMA FIR / North America



MET'MAP, your aeronautical weather chart ! - Copyright ORBIFLY December 2007 - Disclaimer

ORBIFLY MET'MAP TEAM :

Programming & Development : Alexandra Zaïnal
Concept & original design : Baudouin d'Aumeries
Assistance for programming : Marc-Olivier Méhu
Technical & hardware support : Manuel Goepfert

Contact : metmap@orbifly.com




SOURCES & CREDITS :

   NOAA       Earth
Advisory